EWG27B BKPR-LATI
Flight info
| Callsign | EWG27B |
|---|---|
| Flight time | 0h 40m |
| Altitude | 24000 |
| Route | SARAX1D SARAX DCT ODRAS |
| Aircraft | A320/M-SDE3FGHIRWY/LB1 |
Departure
| Time | 2026-04-28 15:03 |
|---|---|
| Airport | Priština Adem Jashari International Airport (BKPR) |
Arrival
| Time | 2026-04-28 15:43 |
|---|---|
| Airport | Tirana International Airport Mother Teresa (LATI) |
| Time | Latitude | Longitude | Altitude | Speed | Heading |
|---|---|---|---|---|---|
| 2026-04-28 14:38 | 42.57472 | 21.03142 | 1787 ft | 0 kts | 265° |
| 2026-04-28 14:54 | 42.57472 | 21.03150 | 1814 ft | 4 kts | 264° |
| 2026-04-28 14:55 | 42.57477 | 21.03186 | 1787 ft | 4 kts | 248° |
| 2026-04-28 14:55 | 42.57490 | 21.03215 | 1785 ft | 4 kts | 211° |
| 2026-04-28 14:55 | 42.57504 | 21.03222 | 1786 ft | 0 kts | 175° |
| 2026-04-28 14:58 | 42.57453 | 21.03228 | 1787 ft | 12 kts | 175° |
| 2026-04-28 14:58 | 42.57374 | 21.03237 | 1787 ft | 11 kts | 175° |
| 2026-04-28 14:58 | 42.57325 | 21.03292 | 1787 ft | 11 kts | 96° |
| 2026-04-28 14:59 | 42.57263 | 21.03345 | 1787 ft | 12 kts | 173° |
| 2026-04-28 14:59 | 42.57168 | 21.03356 | 1786 ft | 20 kts | 175° |
| 2026-04-28 14:59 | 42.57001 | 21.03373 | 1787 ft | 26 kts | 175° |
| 2026-04-28 14:59 | 42.56815 | 21.03393 | 1781 ft | 26 kts | 176° |
| 2026-04-28 15:00 | 42.56646 | 21.03411 | 1783 ft | 25 kts | 176° |
| 2026-04-28 15:00 | 42.56474 | 21.03429 | 1783 ft | 24 kts | 175° |
| 2026-04-28 15:00 | 42.56302 | 21.03446 | 1788 ft | 25 kts | 176° |
| 2026-04-28 15:00 | 42.56125 | 21.03464 | 1793 ft | 25 kts | 176° |
| 2026-04-28 15:01 | 42.55956 | 21.03480 | 1793 ft | 24 kts | 176° |
| 2026-04-28 15:01 | 42.55831 | 21.03497 | 1798 ft | 13 kts | 161° |
| 2026-04-28 15:01 | 42.55805 | 21.03603 | 1799 ft | 14 kts | 86° |
| 2026-04-28 15:01 | 42.55829 | 21.03730 | 1798 ft | 12 kts | 33° |
| 2026-04-28 15:02 | 42.55859 | 21.03734 | 1798 ft | 0 kts | 358° |
| 2026-04-28 15:02 | 42.56125 | 21.03710 | 1794 ft | 86 kts | 356° |
| 2026-04-28 15:03 | 42.57007 | 21.03629 | 1802 ft | 161 kts | 0° |
| 2026-04-28 15:03 | 42.58165 | 21.03526 | 2622 ft | 169 kts | 356° |
| 2026-04-28 15:03 | 42.59367 | 21.03401 | 3479 ft | 182 kts | 354° |
| 2026-04-28 15:03 | 42.60707 | 21.03249 | 3992 ft | 205 kts | 354° |
| 2026-04-28 15:04 | 42.62188 | 21.03087 | 4557 ft | 227 kts | 354° |
| 2026-04-28 15:04 | 42.63797 | 21.02696 | 5351 ft | 242 kts | 334° |
| 2026-04-28 15:04 | 42.65116 | 21.01244 | 6434 ft | 249 kts | 310° |
| 2026-04-28 15:04 | 42.66141 | 20.99318 | 7588 ft | 253 kts | 302° |
| 2026-04-28 15:05 | 42.67067 | 20.97267 | 8828 ft | 256 kts | 300° |
| 2026-04-28 15:05 | 42.67995 | 20.95189 | 10048 ft | 259 kts | 301° |
| 2026-04-28 15:05 | 42.68803 | 20.92994 | 11142 ft | 263 kts | 283° |
| 2026-04-28 15:05 | 42.68804 | 20.90521 | 12246 ft | 267 kts | 257° |
| 2026-04-28 15:06 | 42.67961 | 20.88187 | 12993 ft | 289 kts | 230° |
| 2026-04-28 15:06 | 42.66373 | 20.86410 | 13903 ft | 301 kts | 218° |
| 2026-04-28 15:06 | 42.64666 | 20.84709 | 14823 ft | 306 kts | 219° |
| 2026-04-28 15:06 | 42.62929 | 20.82973 | 15757 ft | 311 kts | 219° |
| 2026-04-28 15:07 | 42.61175 | 20.81209 | 16680 ft | 317 kts | 220° |
| 2026-04-28 15:07 | 42.59394 | 20.79413 | 17600 ft | 322 kts | 220° |
| 2026-04-28 15:07 | 42.57582 | 20.77579 | 18501 ft | 327 kts | 220° |
| 2026-04-28 15:07 | 42.55746 | 20.75718 | 19303 ft | 332 kts | 220° |
| 2026-04-28 15:08 | 42.53884 | 20.73834 | 20102 ft | 336 kts | 220° |
| 2026-04-28 15:08 | 42.51911 | 20.72082 | 20902 ft | 344 kts | 210° |
| 2026-04-28 15:08 | 42.49625 | 20.71010 | 21672 ft | 355 kts | 194° |
| 2026-04-28 15:08 | 42.47110 | 20.70759 | 22167 ft | 374 kts | 181° |
| 2026-04-28 15:09 | 42.44483 | 20.70617 | 22303 ft | 391 kts | 195° |
| 2026-04-28 15:09 | 42.41865 | 20.69440 | 22585 ft | 401 kts | 206° |
| 2026-04-28 15:09 | 42.39295 | 20.67793 | 23180 ft | 406 kts | 211° |
| 2026-04-28 15:09 | 42.37635 | 20.66609 | 23607 ft | 409 kts | 212° |
| 2026-04-28 15:10 | 42.34294 | 20.64200 | 24003 ft | 412 kts | 211° |
| 2026-04-28 15:10 | 42.31725 | 20.62442 | 24065 ft | 416 kts | 210° |
| 2026-04-28 15:10 | 42.29095 | 20.60754 | 24076 ft | 419 kts | 208° |
| 2026-04-28 15:10 | 42.26435 | 20.59141 | 24070 ft | 419 kts | 207° |
| 2026-04-28 15:11 | 42.23755 | 20.57569 | 24071 ft | 420 kts | 206° |
| 2026-04-28 15:11 | 42.21981 | 20.56539 | 24070 ft | 420 kts | 206° |
| 2026-04-28 15:11 | 42.19291 | 20.54972 | 24069 ft | 420 kts | 207° |
| 2026-04-28 15:11 | 42.16608 | 20.53398 | 24073 ft | 420 kts | 207° |
| 2026-04-28 15:12 | 42.13934 | 20.51812 | 24074 ft | 420 kts | 207° |
| 2026-04-28 15:12 | 42.11251 | 20.50207 | 24073 ft | 420 kts | 207° |
| 2026-04-28 15:12 | 42.08577 | 20.48604 | 24074 ft | 420 kts | 207° |
| 2026-04-28 15:12 | 42.05905 | 20.46998 | 24059 ft | 420 kts | 207° |
| 2026-04-28 15:13 | 42.03235 | 20.45397 | 24068 ft | 420 kts | 207° |
| 2026-04-28 15:13 | 42.00568 | 20.43803 | 24076 ft | 420 kts | 207° |
| 2026-04-28 15:13 | 41.97893 | 20.42209 | 24074 ft | 419 kts | 207° |
| 2026-04-28 15:13 | 41.95220 | 20.40617 | 24068 ft | 419 kts | 207° |
| 2026-04-28 15:14 | 41.92558 | 20.39035 | 24062 ft | 419 kts | 207° |
| 2026-04-28 15:14 | 41.89891 | 20.37453 | 24058 ft | 419 kts | 207° |
| 2026-04-28 15:14 | 41.87224 | 20.35871 | 24057 ft | 419 kts | 207° |
| 2026-04-28 15:14 | 41.84593 | 20.34311 | 24057 ft | 419 kts | 207° |
| 2026-04-28 15:15 | 41.81926 | 20.32729 | 24057 ft | 419 kts | 206° |
| 2026-04-28 15:15 | 41.79256 | 20.31144 | 24045 ft | 419 kts | 206° |
| 2026-04-28 15:15 | 41.76595 | 20.29568 | 23857 ft | 417 kts | 206° |
| 2026-04-28 15:15 | 41.73955 | 20.28010 | 23130 ft | 413 kts | 206° |
| 2026-04-28 15:16 | 41.71349 | 20.26478 | 22483 ft | 406 kts | 206° |
| 2026-04-28 15:16 | 41.68779 | 20.24969 | 21901 ft | 400 kts | 206° |
| 2026-04-28 15:16 | 41.66250 | 20.23485 | 21329 ft | 394 kts | 206° |
| 2026-04-28 15:16 | 41.63749 | 20.22016 | 20773 ft | 389 kts | 206° |
| 2026-04-28 15:17 | 41.61307 | 20.20533 | 20196 ft | 383 kts | 211° |
| 2026-04-28 15:17 | 41.59140 | 20.18529 | 19648 ft | 376 kts | 224° |
| 2026-04-28 15:17 | 41.57409 | 20.15964 | 19081 ft | 369 kts | 237° |
| 2026-04-28 15:17 | 41.56166 | 20.12995 | 18496 ft | 364 kts | 250° |
| 2026-04-28 15:18 | 41.55452 | 20.09773 | 17835 ft | 360 kts | 262° |
| 2026-04-28 15:18 | 41.55184 | 20.06475 | 17232 ft | 356 kts | 266° |
| 2026-04-28 15:18 | 41.54952 | 20.03188 | 16627 ft | 354 kts | 266° |
| 2026-04-28 15:18 | 41.54714 | 19.99919 | 15969 ft | 355 kts | 266° |
| 2026-04-28 15:19 | 41.54472 | 19.96651 | 15346 ft | 354 kts | 265° |
| 2026-04-28 15:19 | 41.54228 | 19.93391 | 14766 ft | 352 kts | 265° |
| 2026-04-28 15:19 | 41.53986 | 19.90144 | 14169 ft | 350 kts | 265° |
| 2026-04-28 15:19 | 41.53746 | 19.86925 | 13545 ft | 348 kts | 265° |
| 2026-04-28 15:20 | 41.53507 | 19.83726 | 12938 ft | 345 kts | 265° |
| 2026-04-28 15:20 | 41.53272 | 19.80600 | 12334 ft | 342 kts | 265° |
| 2026-04-28 15:20 | 41.53038 | 19.77458 | 11733 ft | 339 kts | 264° |
| 2026-04-28 15:20 | 41.52808 | 19.74336 | 11100 ft | 337 kts | 264° |
| 2026-04-28 15:21 | 41.52577 | 19.71224 | 10514 ft | 336 kts | 264° |
| 2026-04-28 15:21 | 41.52348 | 19.68192 | 10372 ft | 320 kts | 264° |
| 2026-04-28 15:21 | 41.52129 | 19.65309 | 10254 ft | 305 kts | 263° |
| 2026-04-28 15:21 | 41.51918 | 19.62536 | 10061 ft | 295 kts | 264° |
| 2026-04-28 15:22 | 41.51777 | 19.59836 | 9855 ft | 291 kts | 272° |
| 2026-04-28 15:22 | 41.52345 | 19.57257 | 9616 ft | 294 kts | 298° |
| 2026-04-28 15:22 | 41.53776 | 19.55322 | 9069 ft | 297 kts | 330° |
| 2026-04-28 15:22 | 41.55711 | 19.54506 | 8652 ft | 288 kts | 352° |
| 2026-04-28 15:23 | 41.57694 | 19.54194 | 7837 ft | 286 kts | 353° |
| 2026-04-28 15:23 | 41.59658 | 19.53933 | 7057 ft | 282 kts | 354° |
| 2026-04-28 15:23 | 41.61594 | 19.54136 | 6294 ft | 280 kts | 18° |
| 2026-04-28 15:23 | 41.63170 | 19.55530 | 5559 ft | 277 kts | 49° |
| 2026-04-28 15:24 | 41.63989 | 19.57817 | 5181 ft | 268 kts | 79° |
| 2026-04-28 15:24 | 41.64208 | 19.60207 | 5017 ft | 256 kts | 83° |
| 2026-04-28 15:24 | 41.64385 | 19.62514 | 4885 ft | 243 kts | 83° |
| 2026-04-28 15:24 | 41.64549 | 19.64718 | 4765 ft | 233 kts | 83° |
| 2026-04-28 15:25 | 41.64665 | 19.66830 | 4647 ft | 223 kts | 93° |
| 2026-04-28 15:25 | 41.64074 | 19.68656 | 4543 ft | 213 kts | 137° |
| 2026-04-28 15:25 | 41.62751 | 19.69452 | 4176 ft | 215 kts | 178° |
| 2026-04-28 15:25 | 41.61234 | 19.69453 | 3772 ft | 221 kts | 179° |
| 2026-04-28 15:26 | 41.59685 | 19.69617 | 3443 ft | 224 kts | 176° |
| 2026-04-28 15:26 | 41.58147 | 19.69828 | 3140 ft | 218 kts | 176° |
| 2026-04-28 15:26 | 41.56671 | 19.70029 | 2851 ft | 209 kts | 177° |
| 2026-04-28 15:26 | 41.55251 | 19.70220 | 2571 ft | 200 kts | 176° |
| 2026-04-28 15:27 | 41.53919 | 19.70399 | 2346 ft | 184 kts | 177° |
| 2026-04-28 15:27 | 41.52691 | 19.70563 | 2095 ft | 171 kts | 176° |
| 2026-04-28 15:27 | 41.51554 | 19.70715 | 1887 ft | 156 kts | 177° |
| 2026-04-28 15:27 | 41.50544 | 19.70851 | 1687 ft | 138 kts | 178° |
| 2026-04-28 15:28 | 41.49617 | 19.70974 | 1494 ft | 130 kts | 178° |
| 2026-04-28 15:28 | 41.48716 | 19.71099 | 1373 ft | 151 kts | 176° |
| 2026-04-28 15:28 | 41.47679 | 19.71237 | 1501 ft | 159 kts | 176° |
| 2026-04-28 15:28 | 41.46624 | 19.71399 | 1505 ft | 147 kts | 177° |
| 2026-04-28 15:29 | 41.45503 | 19.71511 | 1540 ft | 170 kts | 178° |
| 2026-04-28 15:29 | 41.44316 | 19.71634 | 2182 ft | 176 kts | 178° |
| 2026-04-28 15:29 | 41.43029 | 19.71741 | 2796 ft | 192 kts | 178° |
| 2026-04-28 15:29 | 41.41679 | 19.71844 | 2970 ft | 195 kts | 178° |
| 2026-04-28 15:30 | 41.40309 | 19.71952 | 2997 ft | 195 kts | 177° |
| 2026-04-28 15:30 | 41.38916 | 19.72047 | 3010 ft | 219 kts | 179° |
| 2026-04-28 15:30 | 41.37367 | 19.71802 | 3019 ft | 227 kts | 205° |
| 2026-04-28 15:30 | 41.36165 | 19.70478 | 3248 ft | 228 kts | 239° |
| 2026-04-28 15:31 | 41.35590 | 19.68530 | 3509 ft | 226 kts | 260° |
| 2026-04-28 15:31 | 41.35377 | 19.66453 | 3754 ft | 228 kts | 264° |
| 2026-04-28 15:31 | 41.35202 | 19.64254 | 3952 ft | 252 kts | 265° |
| 2026-04-28 15:31 | 41.35024 | 19.61880 | 4012 ft | 261 kts | 266° |
| 2026-04-28 15:32 | 41.35184 | 19.59496 | 4016 ft | 260 kts | 290° |
| 2026-04-28 15:32 | 41.36176 | 19.57522 | 4021 ft | 259 kts | 319° |
| 2026-04-28 15:32 | 41.37774 | 19.56448 | 4023 ft | 261 kts | 347° |
| 2026-04-28 15:32 | 41.39580 | 19.56153 | 4023 ft | 259 kts | 354° |
| 2026-04-28 15:33 | 41.41390 | 19.55988 | 4021 ft | 262 kts | 355° |
| 2026-04-28 15:33 | 41.43214 | 19.55826 | 4022 ft | 263 kts | 355° |
| 2026-04-28 15:33 | 41.45045 | 19.55659 | 4023 ft | 264 kts | 355° |
| 2026-04-28 15:33 | 41.46875 | 19.55503 | 4020 ft | 264 kts | 355° |
| 2026-04-28 15:34 | 41.48707 | 19.55352 | 4025 ft | 262 kts | 356° |
| 2026-04-28 15:34 | 41.50530 | 19.55199 | 4024 ft | 263 kts | 355° |
| 2026-04-28 15:34 | 41.52361 | 19.55044 | 4025 ft | 263 kts | 355° |
| 2026-04-28 15:34 | 41.54190 | 19.54888 | 4026 ft | 264 kts | 355° |
| 2026-04-28 15:35 | 41.56000 | 19.54744 | 4023 ft | 265 kts | 355° |
| 2026-04-28 15:35 | 41.59686 | 19.54466 | 4023 ft | 265 kts | 355° |
| 2026-04-28 15:35 | 41.61493 | 19.54324 | 4020 ft | 251 kts | 356° |
| 2026-04-28 15:36 | 41.63214 | 19.54224 | 4019 ft | 245 kts | 356° |
| 2026-04-28 15:36 | 41.64896 | 19.54511 | 4019 ft | 247 kts | 20° |
| 2026-04-28 15:36 | 41.66262 | 19.55878 | 4017 ft | 250 kts | 51° |
| 2026-04-28 15:36 | 41.66937 | 19.58009 | 4019 ft | 251 kts | 79° |
| 2026-04-28 15:37 | 41.67138 | 19.60335 | 4017 ft | 252 kts | 84° |
| 2026-04-28 15:37 | 41.67206 | 19.62688 | 4017 ft | 254 kts | 95° |
| 2026-04-28 15:37 | 41.66782 | 19.64960 | 4017 ft | 253 kts | 114° |
| 2026-04-28 15:37 | 41.66208 | 19.66314 | 4015 ft | 253 kts | 127° |
| 2026-04-28 15:38 | 41.64490 | 19.68375 | 4013 ft | 242 kts | 153° |
| 2026-04-28 15:38 | 41.62999 | 19.69141 | 3969 ft | 227 kts | 169° |
| 2026-04-28 15:38 | 41.61428 | 19.69401 | 3751 ft | 223 kts | 176° |
| 2026-04-28 15:38 | 41.59886 | 19.69601 | 3460 ft | 223 kts | 176° |
| 2026-04-28 15:39 | 41.58366 | 19.69803 | 3178 ft | 218 kts | 176° |
| 2026-04-28 15:39 | 41.56896 | 19.70000 | 2897 ft | 208 kts | 176° |
| 2026-04-28 15:39 | 41.55488 | 19.70188 | 2638 ft | 196 kts | 176° |
| 2026-04-28 15:39 | 41.54192 | 19.70362 | 2387 ft | 179 kts | 175° |
| 2026-04-28 15:40 | 41.52998 | 19.70522 | 2155 ft | 162 kts | 176° |
| 2026-04-28 15:40 | 41.51965 | 19.70660 | 1960 ft | 143 kts | 176° |
| 2026-04-28 15:40 | 41.51020 | 19.70786 | 1774 ft | 132 kts | 176° |
| 2026-04-28 15:40 | 41.50125 | 19.70906 | 1597 ft | 127 kts | 179° |
| 2026-04-28 15:41 | 41.49245 | 19.71023 | 1426 ft | 126 kts | 179° |
| 2026-04-28 15:41 | 41.48381 | 19.71138 | 1252 ft | 125 kts | 177° |
| 2026-04-28 15:41 | 41.47513 | 19.71254 | 1046 ft | 125 kts | 177° |
| 2026-04-28 15:41 | 41.46654 | 19.71393 | 835 ft | 124 kts | 178° |
| 2026-04-28 15:42 | 41.45795 | 19.71482 | 730 ft | 125 kts | 178° |
| 2026-04-28 15:42 | 41.44939 | 19.71603 | 572 ft | 123 kts | 177° |
| 2026-04-28 15:42 | 41.44096 | 19.71711 | 420 ft | 121 kts | 179° |
| 2026-04-28 15:42 | 41.43260 | 19.71825 | 289 ft | 120 kts | 180° |
| 2026-04-28 15:43 | 41.42429 | 19.71931 | 166 ft | 120 kts | 178° |
| 2026-04-28 15:43 | 41.41653 | 19.72031 | 123 ft | 95 kts | 174° |
| 2026-04-28 15:43 | 41.41166 | 19.72094 | 126 ft | 49 kts | 174° |
| 2026-04-28 15:43 | 41.40850 | 19.72135 | 132 ft | 43 kts | 174° |
| 2026-04-28 15:44 | 41.40685 | 19.72123 | 134 ft | 13 kts | 238° |
| 2026-04-28 15:44 | 41.40661 | 19.72009 | 132 ft | 15 kts | 256° |
| 2026-04-28 15:44 | 41.40633 | 19.71856 | 132 ft | 16 kts | 256° |
| 2026-04-28 15:44 | 41.40677 | 19.71763 | 132 ft | 16 kts | 351° |
| 2026-04-28 15:45 | 41.40801 | 19.71736 | 132 ft | 22 kts | 348° |
| 2026-04-28 15:45 | 41.40971 | 19.71701 | 132 ft | 26 kts | 354° |
| 2026-04-28 15:45 | 41.41148 | 19.71678 | 132 ft | 26 kts | 354° |
| 2026-04-28 15:45 | 41.41340 | 19.71654 | 132 ft | 25 kts | 354° |
| 2026-04-28 15:46 | 41.41495 | 19.71633 | 132 ft | 22 kts | 354° |
| 2026-04-28 15:46 | 41.41641 | 19.71614 | 132 ft | 20 kts | 354° |
| 2026-04-28 15:46 | 41.41771 | 19.71596 | 132 ft | 9 kts | 354° |
| 2026-04-28 15:46 | 41.41795 | 19.71593 | 132 ft | 3 kts | 354° |
| 2026-04-28 15:47 | 41.41822 | 19.71590 | 132 ft | 4 kts | 354° |
| 2026-04-28 15:47 | 41.41871 | 19.71584 | 132 ft | 11 kts | 355° |
| 2026-04-28 15:47 | 41.41946 | 19.71572 | 132 ft | 9 kts | 336° |
| 2026-04-28 15:47 | 41.41953 | 19.71533 | 132 ft | 3 kts | 267° |
| 2026-04-28 15:48 | 41.41952 | 19.71515 | 132 ft | 1 kts | 265° |
| 2026-04-28 15:48 | 41.41952 | 19.71510 | 132 ft | 0 kts | 264° |